Time;durP1;ratioP1;P1;durP2;ratioP2;P2;SDS_P1;SDS_P2;PMS_P1;PMS_P2;Temp;Humidity;BMP_temperature;BMP_pressure;BME280_temperature;BME280_humidity;BME280_pressure;Samples;Min_cycle;Max_cycle;Signal;HPM_P1;HPM_P2
2023/04/23 00:00:16;;;;;;;53.80;26.90;;;8.10;99.90;;;;;;5065491;28;20048;-67
2023/04/23 00:02:48;;;;;;;52.67;24.80;;;8.10;99.90;;;;;;5083288;28;20383;-67
2023/04/23 00:05:15;;;;;;;51.83;25.15;;;8.10;99.90;;;;;;5067574;28;20036;-67
2023/04/23 00:07:41;;;;;;;57.28;25.92;;;8.10;99.90;;;;;;5084835;28;20122;-67
2023/04/23 00:10:08;;;;;;;56.00;27.20;;;8.00;99.90;;;;;;5049704;28;20503;-67
2023/04/23 00:12:34;;;;;;;50.55;25.92;;;8.10;99.90;;;;;;5067289;28;20559;-67
2023/04/23 00:15:01;;;;;;;53.67;26.52;;;8.00;99.90;;;;;;5068405;28;20047;-67
2023/04/23 00:17:27;;;;;;;56.58;27.27;;;8.00;99.90;;;;;;5082732;28;20563;-67
2023/04/23 00:19:53;;;;;;;57.45;26.55;;;8.00;99.90;;;;;;5085366;28;20067;-67
2023/04/23 00:22:19;;;;;;;66.60;28.63;;;8.00;99.90;;;;;;5065608;28;20115;-66
2023/04/23 00:24:45;;;;;;;63.60;26.52;;;7.90;99.90;;;;;;5063749;28;20044;-67
2023/04/23 00:27:11;;;;;;;63.30;28.40;;;7.90;99.90;;;;;;5083504;28;20730;-67
2023/04/23 00:29:37;;;;;;;52.75;25.75;;;7.90;99.90;;;;;;5079166;28;20124;-67
2023/04/23 00:32:03;;;;;;;63.22;27.63;;;7.90;99.90;;;;;;5050661;28;20211;-67
2023/04/23 00:34:29;;;;;;;61.70;28.92;;;7.80;99.90;;;;;;5083686;28;20075;-67
2023/04/23 00:36:54;;;;;;;71.22;28.27;;;7.80;99.90;;;;;;5049807;28;20149;-67
2023/04/23 00:39:21;;;;;;;63.67;28.15;;;7.80;99.90;;;;;;5062231;28;20044;-67
2023/04/23 00:41:47;;;;;;;63.05;28.02;;;7.80;99.90;;;;;;5083628;28;20093;-67
2023/04/23 00:44:13;;;;;;;73.60;29.75;;;7.70;99.90;;;;;;5062582;28;20055;-67
2023/04/23 00:46:39;;;;;;;63.42;30.17;;;7.80;99.90;;;;;;5083540;28;20042;-67
2023/04/23 00:49:05;;;;;;;76.18;31.20;;;7.80;99.90;;;;;;5080930;28;20420;-66
2023/04/23 00:51:33;;;;;;;73.10;30.20;;;7.70;99.90;;;;;;5085281;28;20044;-67
2023/04/23 00:53:59;;;;;;;74.32;31.13;;;7.70;99.90;;;;;;5081514;28;20028;-67
2023/04/23 00:56:26;;;;;;;76.65;31.50;;;7.70;99.90;;;;;;5066564;28;20062;-67
2023/04/23 00:58:52;;;;;;;77.68;31.48;;;7.70;99.90;;;;;;5067145;28;20044;-67
2023/04/23 01:01:20;;;;;;;81.28;33.28;;;7.70;99.90;;;;;;5047776;28;20427;-67
2023/04/23 01:03:51;;;;;;;84.25;31.50;;;7.60;99.90;;;;;;5064178;28;20442;-67
2023/04/23 01:06:17;;;;;;;87.13;33.50;;;7.60;99.90;;;;;;5087844;28;20527;-67
2023/04/23 01:08:45;;;;;;;88.28;34.00;;;7.60;99.90;;;;;;5078271;28;20050;-67
2023/04/23 01:11:15;;;;;;;82.13;33.45;;;7.60;99.90;;;;;;5052658;28;20044;-67
2023/04/23 01:13:41;;;;;;;85.00;33.47;;;7.60;99.90;;;;;;5082839;28;20089;-67
2023/04/23 01:16:08;;;;;;;83.15;34.60;;;7.60;99.90;;;;;;5060280;28;20872;-66
2023/04/23 01:18:34;;;;;;;91.43;36.22;;;7.60;99.90;;;;;;5076029;28;20036;-66
2023/04/23 01:21:00;;;;;;;102.75;38.28;;;7.60;99.90;;;;;;5082423;28;20085;-67
2023/04/23 01:23:26;;;;;;;91.43;36.38;;;7.50;99.90;;;;;;5064407;28;20047;-67
2023/04/23 01:25:53;;;;;;;115.30;39.97;;;7.50;99.90;;;;;;5063563;28;20055;-67
2023/04/23 01:28:20;;;;;;;109.45;39.00;;;7.50;99.90;;;;;;5051312;28;20055;-67
2023/04/23 01:30:46;;;;;;;113.22;41.92;;;7.50;99.90;;;;;;5081827;28;20044;-67
2023/04/23 01:33:13;;;;;;;113.97;42.03;;;7.50;99.90;;;;;;5081436;28;20063;-67
2023/04/23 01:35:40;;;;;;;116.38;41.60;;;7.40;99.90;;;;;;5081134;28;20093;-66
2023/04/23 01:38:09;;;;;;;125.43;45.47;;;7.50;99.90;;;;;;5063873;28;20051;-66
2023/04/23 01:40:35;;;;;;;121.82;43.22;;;7.50;99.90;;;;;;5067101;28;20035;-66
2023/04/23 01:43:00;;;;;;;116.35;42.20;;;7.50;99.90;;;;;;5065487;28;20379;-67
2023/04/23 01:45:26;;;;;;;139.05;45.28;;;7.40;99.90;;;;;;5067553;28;20416;-68
2023/04/23 01:47:52;;;;;;;130.45;45.53;;;7.40;99.90;;;;;;5060357;28;20048;-67
2023/04/23 01:50:22;;;;;;;134.73;46.55;;;7.40;99.90;;;;;;5064819;28;20055;-67
2023/04/23 01:52:47;;;;;;;169.20;50.15;;;7.40;99.90;;;;;;5083661;28;20048;-67
2023/04/23 01:55:13;;;;;;;155.88;46.70;;;7.40;99.90;;;;;;5064299;28;20062;-67
2023/04/23 01:57:39;;;;;;;144.13;45.03;;;7.40;99.90;;;;;;5080339;28;20116;-66
2023/04/23 02:00:08;;;;;;;161.20;51.80;;;7.30;99.90;;;;;;5043431;28;20075;-66
2023/04/23 02:02:34;;;;;;;157.40;48.00;;;7.40;99.90;;;;;;5063349;28;20339;-67
2023/04/23 02:05:04;;;;;;;171.82;52.28;;;7.40;99.90;;;;;;5063367;28;20113;-67
2023/04/23 02:07:34;;;;;;;160.20;50.17;;;7.40;99.90;;;;;;5065725;28;20111;-67
2023/04/23 02:10:01;;;;;;;179.80;54.17;;;7.40;99.90;;;;;;5080637;28;20047;-67
2023/04/23 02:12:26;;;;;;;166.15;54.40;;;7.30;99.90;;;;;;5061567;28;20043;-67
2023/04/23 02:14:53;;;;;;;169.68;54.33;;;7.30;99.90;;;;;;5048341;28;20040;-67
2023/04/23 02:17:21;;;;;;;181.15;55.00;;;7.30;99.90;;;;;;5080787;28;20085;-67
2023/04/23 02:19:48;;;;;;;174.95;54.10;;;7.30;99.90;;;;;;5062588;28;20044;-67
2023/04/23 02:22:15;;;;;;;192.23;56.85;;;7.30;99.90;;;;;;5088328;28;20128;-66
2023/04/23 02:24:41;;;;;;;197.65;58.60;;;7.30;99.90;;;;;;5071690;28;20035;-67
2023/04/23 02:27:07;;;;;;;188.98;58.67;;;7.30;99.90;;;;;;5065781;28;20040;-67
2023/04/23 02:29:33;;;;;;;201.82;58.10;;;7.20;99.90;;;;;;5082788;28;20051;-68
2023/04/23 02:31:59;;;;;;;172.15;53.30;;;7.20;99.90;;;;;;5041698;28;20049;-67
2023/04/23 02:34:25;;;;;;;173.25;52.28;;;7.20;99.90;;;;;;5045067;28;20064;-67
2023/04/23 02:36:51;;;;;;;172.20;51.38;;;7.10;99.90;;;;;;5027822;28;20041;-67
2023/04/23 02:39:17;;;;;;;176.88;52.13;;;7.10;99.90;;;;;;5028313;28;20099;-67
2023/04/23 02:41:43;;;;;;;180.93;55.25;;;7.00;99.90;;;;;;5043369;28;20040;-67
2023/04/23 02:44:08;;;;;;;186.60;51.42;;;6.90;99.90;;;;;;5050365;28;20485;-67
2023/04/23 02:46:36;;;;;;;194.75;53.10;;;6.80;99.90;;;;;;5044270;28;20049;-67
2023/04/23 02:49:02;;;;;;;218.80;55.47;;;6.70;99.90;;;;;;5045205;28;20041;-67
2023/04/23 02:51:27;;;;;;;234.95;56.70;;;6.60;99.90;;;;;;5048382;28;20474;-67
2023/04/23 02:53:53;;;;;;;212.07;55.60;;;6.60;99.90;;;;;;5046752;28;20072;-67
2023/04/23 02:56:19;;;;;;;217.82;56.58;;;6.50;99.90;;;;;;5041725;28;21304;-67
2023/04/23 02:58:45;;;;;;;239.00;59.97;;;6.50;99.90;;;;;;5043611;28;20493;-67
2023/04/23 03:01:11;;;;;;;237.38;61.25;;;6.50;99.90;;;;;;5027885;28;20040;-67
2023/04/23 03:03:37;;;;;;;229.52;57.67;;;6.50;99.90;;;;;;5040257;28;20053;-67
2023/04/23 03:06:03;;;;;;;272.23;65.75;;;6.40;99.90;;;;;;5039178;28;20158;-66
2023/04/23 03:08:29;;;;;;;250.35;57.15;;;6.40;99.90;;;;;;5046541;28;20072;-67
2023/04/23 03:10:55;;;;;;;233.57;56.45;;;6.40;99.90;;;;;;5050480;28;20087;-67
2023/04/23 03:13:21;;;;;;;255.60;57.28;;;6.40;99.90;;;;;;5044097;28;20029;-67
2023/04/23 03:15:47;;;;;;;290.55;59.95;;;6.30;99.90;;;;;;5040190;28;20130;-67
2023/04/23 03:18:13;;;;;;;327.38;64.45;;;6.20;99.90;;;;;;5025659;28;20036;-67
2023/04/23 03:20:38;;;;;;;272.98;63.50;;;6.10;99.90;;;;;;5040877;28;20098;-67
2023/04/23 03:23:05;;;;;;;271.88;62.67;;;6.10;99.90;;;;;;5045787;28;20427;-67
2023/04/23 03:25:32;;;;;;;229.50;58.65;;;6.10;99.90;;;;;;5027518;28;20051;-67
2023/04/23 03:27:57;;;;;;;268.17;61.58;;;6.10;99.90;;;;;;5044313;28;20133;-66
2023/04/23 03:30:23;;;;;;;276.45;61.97;;;6.00;99.90;;;;;;5049174;28;20275;-67
2023/04/23 03:32:49;;;;;;;296.77;64.85;;;6.00;99.90;;;;;;5049008;28;20069;-66
2023/04/23 03:35:15;;;;;;;212.35;57.25;;;6.00;99.90;;;;;;5060121;28;20036;-67
2023/04/23 03:37:41;;;;;;;236.27;59.25;;;6.00;99.90;;;;;;5062099;28;20550;-67
2023/04/23 03:40:08;;;;;;;308.35;70.35;;;6.00;99.90;;;;;;5042905;28;20220;-67
2023/04/23 03:42:35;;;;;;;288.48;68.50;;;6.00;99.90;;;;;;5060279;28;20051;-67
2023/04/23 03:45:00;;;;;;;338.52;76.35;;;6.00;99.90;;;;;;5076721;28;20503;-67
2023/04/23 03:47:26;;;;;;;268.80;64.82;;;6.10;99.90;;;;;;5033322;28;20028;-68
2023/04/23 03:49:53;;;;;;;241.02;65.32;;;6.10;99.90;;;;;;5062871;28;20354;-68
2023/04/23 03:52:19;;;;;;;297.77;69.82;;;6.10;99.90;;;;;;5082798;28;20493;-68
2023/04/23 03:54:45;;;;;;;348.15;78.75;;;6.10;99.90;;;;;;5042251;28;20032;-68
2023/04/23 03:57:13;;;;;;;391.35;80.47;;;6.10;99.90;;;;;;5080926;28;20420;-67
2023/04/23 03:59:39;;;;;;;319.02;71.07;;;6.10;99.90;;;;;;5060872;28;20075;-68
2023/04/23 04:02:05;;;;;;;308.70;70.57;;;6.10;99.90;;;;;;5063576;28;20522;-67
2023/04/23 04:04:32;;;;;;;315.98;68.05;;;6.10;99.90;;;;;;5077278;28;20478;-68
2023/04/23 04:07:01;;;;;;;338.92;69.75;;;6.10;99.90;;;;;;5077862;28;20206;-68
2023/04/23 04:09:27;;;;;;;304.08;63.38;;;6.10;99.90;;;;;;5061761;28;20077;-67
2023/04/23 04:11:53;;;;;;;318.95;70.30;;;6.00;99.90;;;;;;5077839;28;20450;-67
2023/04/23 04:14:19;;;;;;;311.42;70.45;;;6.00;99.90;;;;;;5080199;28;20058;-68
2023/04/23 04:16:45;;;;;;;302.33;70.55;;;6.00;99.90;;;;;;5080382;28;20044;-68
2023/04/23 04:19:11;;;;;;;357.30;79.68;;;6.10;99.90;;;;;;5049626;28;20418;-68
2023/04/23 04:21:36;;;;;;;306.23;74.38;;;6.20;99.90;;;;;;5023560;28;20063;-67
2023/04/23 04:24:05;;;;;;;331.02;77.65;;;6.20;99.90;;;;;;5079019;28;20048;-67
2023/04/23 04:26:33;;;;;;;368.02;82.65;;;6.30;99.90;;;;;;5077283;28;20431;-68
2023/04/23 04:29:00;;;;;;;370.08;83.57;;;6.40;99.90;;;;;;5056066;28;20041;-67
2023/04/23 04:31:27;;;;;;;373.08;82.70;;;6.40;99.90;;;;;;5043728;28;20064;-68
2023/04/23 04:33:56;;;;;;;335.27;76.88;;;6.50;99.90;;;;;;5080411;28;20136;-68
2023/04/23 04:36:24;;;;;;;357.23;77.03;;;6.50;99.90;;;;;;5064772;28;20040;-68
2023/04/23 04:38:54;;;;;;;332.92;79.05;;;6.50;99.90;;;;;;5065942;28;20051;-68
2023/04/23 04:41:21;;;;;;;334.13;78.13;;;6.50;99.90;;;;;;5064625;28;20126;-68
2023/04/23 04:43:50;;;;;;;305.95;74.60;;;6.50;99.90;;;;;;5082018;28;20051;-68
2023/04/23 04:46:19;;;;;;;322.17;73.97;;;6.50;99.90;;;;;;5063368;28;20742;-68
2023/04/23 04:48:48;;;;;;;314.73;72.82;;;6.50;99.90;;;;;;5082986;28;20418;-68
2023/04/23 04:51:14;;;;;;;302.88;74.55;;;6.50;99.90;;;;;;5048042;28;20036;-68
2023/04/23 04:53:40;;;;;;;301.83;73.13;;;6.50;99.90;;;;;;5049169;28;20136;-68
2023/04/23 04:56:06;;;;;;;304.98;75.45;;;6.50;99.90;;;;;;5064162;28;20559;-68
2023/04/23 04:58:32;;;;;;;331.13;77.57;;;6.50;99.90;;;;;;5069521;28;20528;-68
2023/04/23 05:00:58;;;;;;;321.35;79.22;;;6.60;99.90;;;;;;5081160;28;20081;-67
2023/04/23 05:03:24;;;;;;;299.40;74.20;;;6.70;99.90;;;;;;5082431;28;20048;-68
2023/04/23 05:05:51;;;;;;;321.02;75.72;;;6.70;99.90;;;;;;5063343;28;20508;-68
2023/04/23 05:08:17;;;;;;;315.02;78.35;;;6.80;99.90;;;;;;5057782;28;20032;-68
2023/04/23 05:10:43;;;;;;;291.48;71.82;;;6.90;99.90;;;;;;5081991;28;20040;-68
2023/04/23 05:13:09;;;;;;;321.98;80.90;;;7.00;99.90;;;;;;5080175;28;20036;-68
2023/04/23 05:15:35;;;;;;;309.83;75.80;;;7.10;99.90;;;;;;5063794;28;20047;-67
2023/04/23 05:18:05;;;;;;;292.30;74.05;;;7.30;99.90;;;;;;5062493;28;20064;-68
2023/04/23 05:20:31;;;;;;;265.55;73.30;;;7.40;99.90;;;;;;5082417;28;20040;-68
2023/04/23 05:22:58;;;;;;;247.50;69.20;;;7.50;99.90;;;;;;5063594;28;20047;-68
2023/04/23 05:25:24;;;;;;;254.00;71.25;;;7.50;99.90;;;;;;5083037;28;20188;-68
2023/04/23 05:27:50;;;;;;;230.32;65.82;;;7.60;99.90;;;;;;5046623;28;20402;-68
2023/04/23 05:30:16;;;;;;;214.68;61.17;;;7.60;99.90;;;;;;5048522;28;20094;-68
2023/04/23 05:32:41;;;;;;;203.75;63.13;;;7.70;99.90;;;;;;5077670;28;20076;-68
2023/04/23 05:35:07;;;;;;;184.98;59.10;;;7.80;99.90;;;;;;5082687;28;20416;-68
2023/04/23 05:37:33;;;;;;;181.20;58.88;;;7.80;99.90;;;;;;5064374;28;20048;-68
2023/04/23 05:39:59;;;;;;;199.85;60.70;;;7.90;99.90;;;;;;5081723;28;20048;-68
2023/04/23 05:42:25;;;;;;;181.65;58.83;;;7.90;99.90;;;;;;5049033;28;20048;-68
2023/04/23 05:44:51;;;;;;;182.73;57.67;;;8.00;99.90;;;;;;5042699;28;20056;-68
2023/04/23 05:47:16;;;;;;;162.02;56.25;;;8.00;99.90;;;;;;5065431;28;20456;-68
2023/04/23 05:49:42;;;;;;;164.18;54.38;;;8.00;99.90;;;;;;5045436;28;20564;-68
2023/04/23 05:52:08;;;;;;;145.85;53.70;;;8.00;99.90;;;;;;5064329;28;20485;-68
2023/04/23 05:54:34;;;;;;;165.80;54.53;;;8.00;99.90;;;;;;5083129;28;20035;-68
2023/04/23 05:57:00;;;;;;;147.10;51.78;;;8.10;99.90;;;;;;5077626;28;20047;-68
2023/04/23 05:59:25;;;;;;;165.38;54.05;;;8.10;99.90;;;;;;5063854;28;20043;-68
2023/04/23 06:01:52;;;;;;;170.45;56.00;;;8.10;99.90;;;;;;5060790;28;20049;-68
2023/04/23 06:04:17;;;;;;;146.90;51.33;;;8.10;99.90;;;;;;5047657;28;20051;-68
2023/04/23 06:06:43;;;;;;;151.48;52.90;;;8.10;99.90;;;;;;5044358;28;20044;-67
2023/04/23 06:09:09;;;;;;;150.57;52.22;;;8.20;99.90;;;;;;5061162;28;20068;-68
2023/04/23 06:11:35;;;;;;;139.48;50.70;;;8.20;99.90;;;;;;5079282;28;20047;-68
2023/04/23 06:14:04;;;;;;;148.73;52.80;;;8.20;99.90;;;;;;5080092;28;20032;-68
2023/04/23 06:16:30;;;;;;;130.00;48.75;;;8.20;99.90;;;;;;5075774;28;20043;-68
2023/04/23 06:18:56;;;;;;;114.15;45.83;;;8.40;99.90;;;;;;5079294;28;21589;-68
2023/04/23 06:21:22;;;;;;;124.78;46.95;;;8.40;99.90;;;;;;5062097;28;20040;-68
2023/04/23 06:23:48;;;;;;;117.93;47.60;;;8.40;99.90;;;;;;5062853;28;20117;-68
2023/04/23 06:26:14;;;;;;;123.80;46.15;;;8.50;99.90;;;;;;5081344;28;20032;-68
2023/04/23 06:28:45;;;;;;;95.53;40.40;;;8.60;99.90;;;;;;5043538;28;20118;-68
2023/04/23 06:31:12;;;;;;;96.07;41.42;;;8.70;99.90;;;;;;5064777;28;20044;-68
2023/04/23 06:33:38;;;;;;;100.03;42.17;;;8.70;99.90;;;;;;5062903;28;20362;-68
2023/04/23 06:36:05;;;;;;;101.70;41.58;;;8.80;99.90;;;;;;5065396;28;20386;-68
2023/04/23 06:38:30;;;;;;;100.35;42.03;;;8.90;99.90;;;;;;5078866;28;20382;-68
2023/04/23 06:40:57;;;;;;;89.53;40.53;;;9.00;99.90;;;;;;5080123;28;20043;-68
2023/04/23 06:43:23;;;;;;;99.45;42.55;;;9.10;99.90;;;;;;5079991;28;20048;-68
2023/04/23 06:45:49;;;;;;;87.78;40.40;;;9.10;99.90;;;;;;5063966;28;20562;-68
2023/04/23 06:48:17;;;;;;;82.70;39.00;;;9.20;99.90;;;;;;5063682;28;20047;-68
2023/04/23 06:50:43;;;;;;;85.80;38.67;;;9.30;99.90;;;;;;5080886;28;20039;-69
2023/04/23 06:53:09;;;;;;;93.85;41.72;;;9.40;99.90;;;;;;5080770;28;20123;-68
2023/04/23 06:55:34;;;;;;;92.30;39.25;;;9.50;99.90;;;;;;5063491;28;20154;-69
2023/04/23 06:58:00;;;;;;;81.80;36.28;;;9.70;99.90;;;;;;5073860;28;20090;-69
2023/04/23 07:00:26;;;;;;;85.28;38.33;;;9.70;99.90;;;;;;5061991;28;20484;-69
2023/04/23 07:02:52;;;;;;;91.03;42.03;;;9.80;99.90;;;;;;5075732;28;20533;-68
2023/04/23 07:05:18;;;;;;;82.47;38.80;;;10.00;99.90;;;;;;5047310;28;20052;-69
2023/04/23 07:07:44;;;;;;;80.63;37.83;;;10.10;99.90;;;;;;5046818;28;20058;-69
2023/04/23 07:10:13;;;;;;;73.22;36.00;;;10.30;99.90;;;;;;5072465;28;20033;-69
2023/04/23 07:12:40;;;;;;;77.40;37.53;;;10.40;99.90;;;;;;5056000;28;20170;-69
2023/04/23 07:15:07;;;;;;;77.45;36.35;;;10.50;99.90;;;;;;5061490;28;20045;-69
2023/04/23 07:17:33;;;;;;;65.35;35.30;;;10.60;99.90;;;;;;5063931;28;20093;-69
2023/04/23 07:19:59;;;;;;;58.70;32.88;;;11.00;99.90;;;;;;5062069;28;20481;-69
2023/04/23 07:22:25;;;;;;;61.72;32.95;;;11.70;99.90;;;;;;5076661;28;20047;-69
2023/04/23 07:24:52;;;;;;;60.38;33.10;;;12.40;99.90;;;;;;5061683;28;20040;-69
2023/04/23 07:27:18;;;;;;;53.05;32.50;;;13.00;99.90;;;;;;5081214;28;20389;-70
2023/04/23 07:29:44;;;;;;;49.55;31.45;;;13.30;99.90;;;;;;5064129;28;20071;-69
2023/04/23 07:32:10;;;;;;;50.67;29.98;;;13.80;99.90;;;;;;5063117;28;20506;-70
2023/04/23 07:34:36;;;;;;;47.13;29.83;;;14.20;99.90;;;;;;5046135;28;20067;-70
2023/04/23 07:37:02;;;;;;;47.17;29.58;;;14.60;99.90;;;;;;5047264;28;20091;-70
2023/04/23 07:39:28;;;;;;;43.40;26.98;;;14.30;99.90;;;;;;5077047;28;20095;-70
2023/04/23 07:41:55;;;;;;;45.03;28.60;;;13.90;99.90;;;;;;5083318;28;20040;-69
2023/04/23 07:44:21;;;;;;;44.58;26.25;;;13.60;99.90;;;;;;5082807;28;20436;-69
2023/04/23 07:46:47;;;;;;;49.03;28.40;;;13.40;99.90;;;;;;5062064;28;20055;-69
2023/04/23 07:49:13;;;;;;;46.83;29.15;;;13.30;99.90;;;;;;5060471;28;20089;-69
2023/04/23 07:51:38;;;;;;;44.33;27.92;;;13.10;99.90;;;;;;5059635;28;20047;-69
2023/04/23 07:54:04;;;;;;;45.22;27.30;;;12.80;99.90;;;;;;5076823;28;20055;-69
2023/04/23 07:56:31;;;;;;;50.05;28.50;;;12.50;99.90;;;;;;5066622;28;20494;-69
2023/04/23 07:58:58;;;;;;;45.42;28.75;;;12.30;99.90;;;;;;5069130;28;20108;-70
2023/04/23 08:01:24;;;;;;;44.60;27.35;;;12.10;99.90;;;;;;5075094;28;20449;-69
2023/04/23 08:03:50;;;;;;;46.65;27.88;;;11.90;99.90;;;;;;5054390;28;20455;-69
2023/04/23 08:06:17;;;;;;;48.78;26.92;;;11.90;99.90;;;;;;5070825;28;20036;-70
2023/04/23 08:08:43;;;;;;;42.65;25.83;;;12.40;99.90;;;;;;5070921;28;20032;-70
2023/04/23 08:11:10;;;;;;;34.30;22.58;;;13.10;99.90;;;;;;5078660;28;20196;-70
2023/04/23 08:13:36;;;;;;;33.15;22.23;;;14.20;99.90;;;;;;5090839;28;20044;-70
2023/04/23 08:16:02;;;;;;;34.75;24.08;;;14.70;99.90;;;;;;5087607;28;20085;-70
2023/04/23 08:18:27;;;;;;;33.08;23.17;;;14.90;99.90;;;;;;5083654;28;20058;-70
2023/04/23 08:20:55;;;;;;;32.83;22.40;;;15.40;99.90;;;;;;5060225;28;20044;-69
2023/04/23 08:23:20;;;;;;;36.55;23.98;;;15.70;99.90;;;;;;5066228;28;20264;-69
2023/04/23 08:25:46;;;;;;;33.33;23.30;;;15.80;99.90;;;;;;5065729;28;20852;-69
2023/04/23 08:28:12;;;;;;;34.90;23.65;;;16.00;99.90;;;;;;5069184;28;20130;-69
2023/04/23 08:30:38;;;;;;;35.92;25.00;;;16.20;99.90;;;;;;5083329;28;20036;-69
2023/04/23 08:33:03;;;;;;;33.10;24.05;;;16.50;99.90;;;;;;5066700;28;20128;-68
2023/04/23 08:35:29;;;;;;;33.95;22.55;;;16.20;99.90;;;;;;5090100;28;20081;-69
2023/04/23 08:37:55;;;;;;;33.33;23.90;;;16.60;99.90;;;;;;5039905;28;20437;-69
2023/04/23 08:40:21;;;;;;;32.80;23.55;;;16.60;99.90;;;;;;5072236;28;20040;-69
2023/04/23 08:42:56;;;;;;;32.40;23.90;;;17.00;99.90;;;;;;5092562;28;20050;-69
2023/04/23 08:45:23;;;;;;;32.28;22.05;;;16.80;99.90;;;;;;5073927;28;20040;-69
2023/04/23 08:47:49;;;;;;;29.38;22.33;;;17.00;99.90;;;;;;5073082;28;20082;-69
2023/04/23 08:50:16;;;;;;;26.85;20.00;;;17.20;99.90;;;;;;5057331;28;20501;-69
2023/04/23 08:52:52;;;;;;;27.17;20.90;;;17.30;99.90;;;;;;5071425;28;20028;-69
2023/04/23 08:55:19;;;;;;;27.88;20.38;;;17.50;99.90;;;;;;5052606;28;20054;-69
2023/04/23 08:57:45;;;;;;;29.08;19.77;;;17.80;99.90;;;;;;5071608;28;20047;-69
2023/04/23 09:00:14;;;;;;;27.35;19.73;;;17.90;99.90;;;;;;5057137;28;20040;-68
2023/04/23 09:02:42;;;;;;;23.50;18.80;;;17.90;99.90;;;;;;5073253;28;20036;-69
2023/04/23 09:05:08;;;;;;;26.10;18.35;;;18.00;99.90;;;;;;5092140;28;20456;-69
2023/04/23 09:07:35;;;;;;;23.70;18.27;;;17.90;99.90;;;;;;5084011;28;20082;-69
2023/04/23 09:10:03;;;;;;;20.20;15.75;;;17.90;99.90;;;;;;5091198;28;20344;-69
2023/04/23 09:12:29;;;;;;;20.75;15.88;;;17.80;99.90;;;;;;5053183;28;20031;-69
2023/04/23 09:14:55;;;;;;;22.95;15.90;;;18.00;99.90;;;;;;5072585;28;20105;-69
2023/04/23 09:17:23;;;;;;;21.88;15.60;;;18.40;99.90;;;;;;5054329;28;20036;-70
2023/04/23 09:19:53;;;;;;;20.52;15.98;;;18.20;99.90;;;;;;5072593;28;20048;-69
2023/04/23 09:22:42;;;;;;;19.70;15.27;;;18.40;99.90;;;;;;5071702;28;20112;-69
2023/04/23 09:25:10;;;;;;;18.52;14.00;;;18.30;99.90;;;;;;5091399;28;20421;-69
2023/04/23 09:27:37;;;;;;;18.42;14.02;;;18.80;99.90;;;;;;5072566;28;20035;-69
2023/04/23 09:30:08;;;;;;;16.85;12.80;;;18.10;99.90;;;;;;5091757;28;20051;-69
2023/04/23 09:32:35;;;;;;;17.38;11.35;;;18.30;99.90;;;;;;5073286;28;20079;-69
2023/04/23 09:35:05;;;;;;;14.48;10.95;;;18.10;99.90;;;;;;5089842;28;20044;-70
2023/04/23 09:37:31;;;;;;;15.23;10.82;;;18.00;99.90;;;;;;5090027;28;20036;-69
2023/04/23 09:40:08;;;;;;;16.27;11.05;;;18.40;99.90;;;;;;5070740;28;20096;-68
2023/04/23 09:42:35;;;;;;;13.55;10.05;;;18.50;99.90;;;;;;5054123;28;20097;-69
2023/04/23 09:45:06;;;;;;;16.95;10.43;;;18.50;99.90;;;;;;5072301;28;20040;-69
2023/04/23 09:47:33;;;;;;;14.27;10.45;;;18.50;99.90;;;;;;5071408;28;20040;-69
2023/04/23 09:50:00;;;;;;;12.77;9.25;;;18.70;99.90;;;;;;5073256;28;20115;-69
2023/04/23 09:52:27;;;;;;;13.35;7.78;;;18.40;99.90;;;;;;5067505;28;20031;-69
2023/04/23 09:54:56;;;;;;;12.68;8.55;;;18.20;99.90;;;;;;5054475;28;20036;-69
2023/04/23 09:57:25;;;;;;;10.95;8.13;;;18.20;99.90;;;;;;5070136;28;20047;-69
2023/04/23 09:59:51;;;;;;;9.75;6.97;;;18.20;99.90;;;;;;5066182;28;20048;-69
2023/04/23 10:02:17;;;;;;;9.70;7.25;;;18.30;99.90;;;;;;5076452;28;20043;-69
2023/04/23 10:04:43;;;;;;;11.02;6.38;;;18.50;99.90;;;;;;5071424;28;20044;-68
2023/04/23 10:07:12;;;;;;;9.32;6.13;;;18.20;99.90;;;;;;5076907;28;20039;-68
2023/04/23 10:09:40;;;;;;;10.90;6.43;;;18.50;99.90;;;;;;5067463;28;20067;-67
2023/04/23 10:12:07;;;;;;;10.38;6.22;;;18.50;99.90;;;;;;5065362;28;20121;-67
2023/04/23 10:14:33;;;;;;;8.65;5.85;;;18.30;99.90;;;;;;5064807;28;20048;-68
2023/04/23 10:17:03;;;;;;;7.13;5.22;;;17.80;99.90;;;;;;5066696;28;20369;-68
2023/04/23 10:19:31;;;;;;;9.43;5.72;;;17.80;99.90;;;;;;5061908;28;20093;-68
2023/04/23 10:22:03;;;;;;;8.93;5.47;;;17.80;99.90;;;;;;5083982;28;20062;-68
2023/04/23 10:24:31;;;;;;;7.57;6.07;;;17.70;99.90;;;;;;5077319;28;20082;-69
2023/04/23 10:27:01;;;;;;;9.98;6.53;;;18.00;99.90;;;;;;5030581;28;20508;-68
2023/04/23 10:29:29;;;;;;;9.05;6.88;;;18.00;99.90;;;;;;5047270;28;20086;-69
2023/04/23 10:32:00;;;;;;;10.15;6.80;;;17.90;99.90;;;;;;5065633;28;20140;-68
2023/04/23 10:34:28;;;;;;;10.63;6.72;;;17.90;99.90;;;;;;5081351;28;20048;-68
2023/04/23 10:36:56;;;;;;;8.18;4.90;;;18.00;99.90;;;;;;5030408;28;20398;-68
2023/04/23 10:39:23;;;;;;;8.98;5.93;;;18.20;99.90;;;;;;5062184;28;20059;-68
2023/04/23 10:41:51;;;;;;;11.73;6.05;;;18.50;99.90;;;;;;5063572;28;20758;-68
2023/04/23 10:44:20;;;;;;;6.50;4.97;;;18.60;99.90;;;;;;5063862;28;20047;-68
2023/04/23 10:46:56;;;;;;;10.10;5.00;;;18.80;99.90;;;;;;5044198;28;20052;-67
2023/04/23 10:49:23;;;;;;;9.43;4.80;;;18.30;99.90;;;;;;5063975;28;20123;-68
2023/04/23 10:51:58;;;;;;;6.70;4.53;;;17.50;99.90;;;;;;5046771;28;20141;-68
2023/04/23 10:54:29;;;;;;;9.15;3.88;;;17.60;99.90;;;;;;5049584;28;20485;-68
2023/04/23 10:57:09;;;;;;;7.18;3.90;;;17.50;99.90;;;;;;5081498;28;20040;-68
2023/04/23 10:59:38;;;;;;;6.88;3.97;;;17.90;99.90;;;;;;5048530;28;20063;-68
2023/04/23 11:02:09;;;;;;;5.72;4.10;;;18.00;99.90;;;;;;5060894;28;20394;-68
2023/04/23 11:04:40;;;;;;;7.65;4.28;;;18.00;99.90;;;;;;5087511;28;20485;-68
2023/04/23 11:07:07;;;;;;;7.97;4.10;;;18.00;99.90;;;;;;5071744;28;20119;-68
2023/04/23 11:09:45;;;;;;;8.70;3.35;;;17.80;99.90;;;;;;5071839;28;20032;-68
2023/04/23 11:12:23;;;;;;;7.50;3.63;;;17.80;99.90;;;;;;5057919;28;20032;-70
2023/04/23 11:14:50;;;;;;;8.18;3.90;;;18.00;99.90;;;;;;5063579;28;20093;-69
2023/04/23 11:17:18;;;;;;;6.50;3.72;;;18.40;99.90;;;;;;5044132;28;20105;-68
2023/04/23 11:20:02;;;;;;;7.93;3.53;;;18.80;99.90;;;;;;5064798;28;20066;-69
2023/04/23 11:22:45;;;;;;;6.93;3.22;;;18.70;99.60;;;;;;5061609;28;20047;-68
2023/04/23 11:25:29;;;;;;;7.13;2.97;;;18.90;98.10;;;;;;5080199;28;20036;-69
2023/04/23 11:27:59;;;;;;;9.63;3.65;;;18.90;96.70;;;;;;5076457;28;20135;-69
2023/04/23 11:30:27;;;;;;;7.82;3.38;;;18.90;97.60;;;;;;5080722;28;20028;-70
2023/04/23 11:32:55;;;;;;;5.38;2.80;;;18.60;97.80;;;;;;5042412;28;20055;-69
2023/04/23 11:35:23;;;;;;;4.28;2.70;;;18.60;97.40;;;;;;5070364;28;20252;-69
2023/04/23 11:37:49;;;;;;;6.90;2.65;;;18.10;96.90;;;;;;5069770;28;20039;-69
2023/04/23 11:40:19;;;;;;;6.13;2.40;;;18.00;96.70;;;;;;5053353;28;20157;-69
2023/04/23 11:42:46;;;;;;;5.15;2.35;;;18.00;96.70;;;;;;5069027;28;20093;-69
2023/04/23 11:45:21;;;;;;;5.22;2.35;;;17.90;96.20;;;;;;5074714;28;20031;-70
2023/04/23 11:47:55;;;;;;;5.25;3.00;;;17.90;97.70;;;;;;5071651;28;20044;-69
2023/04/23 11:50:28;;;;;;;3.90;2.58;;;18.20;96.30;;;;;;5070362;28;20027;-69
2023/04/23 11:52:54;;;;;;;3.80;2.28;;;18.50;96.00;;;;;;5072783;28;20040;-69
2023/04/23 11:55:21;;;;;;;3.45;1.98;;;18.30;95.10;;;;;;5057917;28;20036;-69
2023/04/23 11:57:48;;;;;;;5.70;2.60;;;18.30;95.50;;;;;;5059560;28;20323;-69
2023/04/23 12:00:20;;;;;;;5.03;2.17;;;18.20;95.00;;;;;;5081288;28;20055;-69
2023/04/23 12:02:57;;;;;;;4.28;2.03;;;18.20;95.20;;;;;;5057923;28;20040;-69
2023/04/23 12:05:32;;;;;;;3.95;2.03;;;18.10;95.30;;;;;;5084042;28;20092;-69
2023/04/23 12:08:15;;;;;;;5.18;2.17;;;18.50;96.60;;;;;;5092928;28;20036;-69
2023/04/23 12:10:45;;;;;;;5.38;2.95;;;18.70;95.40;;;;;;5082999;28;20071;-69
2023/04/23 12:13:22;;;;;;;4.88;2.10;;;18.90;96.10;;;;;;5076292;28;20032;-69
2023/04/23 12:15:57;;;;;;;5.38;2.25;;;18.90;95.50;;;;;;5074378;28;20039;-68
2023/04/23 12:18:27;;;;;;;4.15;2.72;;;18.50;94.00;;;;;;5073033;28;20104;-69
2023/04/23 12:20:53;;;;;;;6.75;2.30;;;18.30;94.50;;;;;;5074008;28;20040;-69
2023/04/23 12:23:25;;;;;;;5.70;2.70;;;18.50;95.70;;;;;;5074924;28;20104;-69
2023/04/23 12:25:56;;;;;;;6.05;2.08;;;18.40;93.40;;;;;;5055995;28;20456;-69
2023/04/23 12:28:23;;;;;;;4.97;1.90;;;18.50;94.20;;;;;;5090164;28;20141;-69
2023/04/23 12:30:49;;;;;;;4.55;2.22;;;18.80;94.00;;;;;;5074132;28;20054;-69
2023/04/23 12:33:15;;;;;;;4.45;1.80;;;19.10;92.80;;;;;;5071722;28;20052;-69